Accueil
METAR-TAF:

METAR-TAF

Aéroports :

Guaymas, Mexique

latitude: 27-58N, longitude: 110-56W, altitude: 27 m

Observation

Le bulletin a été fait il y a 58 minutes, à 21:43 UTC
Vent 14 kt de sud/sud-ouest
Température 34°C
Humidité 41%
Pression 1010 hPa
Visibilité: 16.1 km
Ciel clair

METAR: MMGM 232143Z 20014KT 10SM SKC 34/19 A2982

Heure: 15:41 (22:41 UTC)

Prévision

Le bulletin a été fait il y a 6 heures et 32 minutes, à 16:09 UTC
Prévision valable du 23 à 18 UTC au 24 à 18 UTC
Vent 12 kt de sud-ouest
Visibilité: 10 km
Ciel clair
A partir de 24 à 0200 UTC
Vent kt de nord
Visibilité: 10 km
Ciel clair
Evoluant progressivement
du 24 à 17 UTC au 24 à 18 UTC
Vent 5 kt de nord/nord-ouest

TAF: MMGM 231609Z 2318/2418 00000KT P6SM SKC ECMG 2320/2321 23012KT FM240200 00000KT P6SM SKC BECMG 2417/2418 34005KT

Observations et prévisions météorologiques de plus de 4000 aéroports (messages METAR et TAF).

Les stations disponibles sont représentées par des disques jaunes et rouges sur la carte.

Passer la souris dessus pour voir le nom de la station.

Cliquer dessus pour voir les observations et prévisions météorologiques.

Pour changer de carte: cliquez sur les boutons verts avec une croix noire pour zoomer, sur le bouton vert avec un tiret pour effectuer un zoom arrière, ou sur les flèches vertes pour les cartes adjacentes.


METAR-TAF: